createdAt,value
2023-09-07T04:04:06.527Z,34.90
2023-09-07T04:06:34.134Z,34.72
2023-09-07T04:09:02.108Z,36.58
2023-09-07T04:11:30.320Z,34.42
2023-09-07T04:13:57.749Z,33.50
2023-09-07T04:16:25.186Z,34.08
2023-09-07T04:18:52.786Z,33.53
2023-09-07T04:21:20.843Z,32.65
2023-09-07T04:23:48.353Z,32.83
2023-09-07T04:26:16.997Z,32.60
2023-09-07T04:28:44.641Z,35.90
2023-09-07T04:31:12.781Z,36.20
2023-09-07T04:33:40.785Z,35.28
2023-09-07T04:36:12.758Z,34.75
2023-09-07T04:38:42.366Z,34.30
2023-09-07T04:41:11.758Z,34.30
2023-09-07T04:43:46.854Z,35.28
2023-09-07T04:46:14.661Z,34.47
2023-09-07T04:48:43.197Z,33.05
2023-09-07T04:51:13.574Z,32.90
2023-09-07T04:53:41.732Z,34.78
2023-09-07T04:56:09.845Z,34.25
2023-09-07T04:58:39.300Z,36.72
2023-09-07T05:01:09.959Z,34.50
2023-09-07T05:03:38.981Z,34.30
2023-09-07T05:06:08.168Z,36.85
2023-09-07T05:08:36.090Z,33.65
2023-09-07T05:11:05.324Z,36.28
2023-09-07T05:13:33.016Z,35.28
2023-09-07T05:16:02.741Z,34.33
2023-09-07T05:18:31.656Z,33.88
2023-09-07T05:20:59.623Z,33.72
2023-09-07T05:23:27.947Z,34.85
2023-09-07T05:25:56.987Z,33.80
2023-09-07T05:28:27.106Z,33.85
2023-09-07T05:30:56.797Z,34.70
2023-09-07T05:33:26.066Z,34.83
2023-09-07T05:35:54.038Z,34.08
2023-09-07T05:38:22.496Z,33.25
2023-09-07T05:40:55.022Z,34.78
2023-09-07T05:43:24.104Z,33.58
2023-09-07T05:45:51.970Z,34.33
2023-09-07T05:48:19.389Z,33.35
2023-09-07T05:50:48.466Z,32.58
2023-09-07T05:53:16.297Z,32.33
2023-09-07T05:55:43.981Z,25.58
2023-09-07T05:58:11.655Z,24.58
2023-09-07T06:00:44.368Z,19.17
2023-09-07T06:03:13.020Z,18.88
2023-09-07T06:05:42.115Z,19.50
2023-09-07T06:08:11.243Z,21.15
2023-09-07T06:10:39.885Z,23.58
2023-09-07T06:13:10.006Z,25.52
2023-09-07T06:15:37.443Z,25.77
2023-09-07T06:18:05.116Z,21.75
2023-09-07T06:20:34.042Z,21.60
2023-09-07T06:23:02.928Z,20.17
2023-09-07T06:25:30.533Z,20.83
2023-09-07T06:27:59.642Z,24.65
2023-09-07T06:30:27.051Z,20.30
2023-09-07T06:32:55.163Z,20.05
2023-09-07T06:35:23.761Z,18.33
2023-09-07T06:37:51.701Z,15.57
2023-09-07T06:40:23.015Z,17.73
2023-09-07T06:45:27.095Z,16.67
2023-09-07T06:47:55.175Z,17.15
2023-09-07T06:50:25.084Z,16.65
2023-09-07T06:52:53.446Z,16.27
2023-09-07T06:55:22.671Z,14.65
2023-09-07T06:57:50.618Z,14.52
2023-09-07T07:00:18.323Z,13.95
2023-09-07T07:02:46.227Z,12.75
2023-09-07T07:05:14.843Z,11.68
2023-09-07T07:07:44.016Z,11.43
2023-09-07T07:10:13.364Z,11.70
2023-09-07T07:12:41.499Z,11.77
2023-09-07T07:15:09.485Z,11.48
2023-09-07T07:17:37.614Z,11.50
2023-09-07T07:20:06.636Z,11.75
2023-09-07T07:22:36.730Z,11.90
2023-09-07T07:25:06.629Z,11.73
2023-09-07T07:27:34.911Z,11.85
2023-09-07T07:30:03.875Z,11.60
2023-09-07T07:32:31.585Z,11.93
2023-09-07T07:34:59.632Z,12.05
2023-09-07T07:37:28.057Z,11.45
2023-09-07T07:39:55.449Z,11.95
2023-09-07T07:42:23.796Z,10.93
2023-09-07T07:44:51.836Z,11.82
2023-09-07T07:47:19.351Z,11.38
2023-09-07T07:49:46.796Z,10.68
2023-09-07T07:52:14.816Z,11.63
2023-09-07T07:54:42.860Z,10.85
2023-09-07T07:57:11.901Z,8.93
2023-09-07T07:59:40.028Z,10.85
2023-09-07T08:02:08.189Z,8.75
2023-09-07T08:04:37.083Z,10.48
2023-09-07T08:07:06.624Z,11.50
2023-09-07T08:09:36.240Z,10.70
2023-09-07T08:12:04.231Z,10.73
2023-09-07T08:14:33.915Z,11.27
2023-09-07T08:17:04.166Z,11.43
2023-09-07T08:19:33.592Z,10.00
2023-09-07T08:22:04.911Z,9.13
2023-09-07T08:27:02.117Z,8.98
2023-09-07T08:29:33.322Z,9.10
2023-09-07T08:32:04.968Z,9.15
2023-09-07T08:34:32.668Z,9.05
2023-09-07T08:37:00.362Z,10.15
2023-09-07T08:39:27.816Z,8.88
2023-09-07T08:42:02.322Z,8.98
2023-09-07T08:44:31.402Z,9.95
2023-09-07T08:47:01.311Z,9.23
2023-09-07T08:49:30.772Z,9.90
2023-09-07T08:52:00.970Z,9.55
2023-09-07T08:54:29.499Z,9.85
2023-09-07T08:56:58.774Z,12.50
2023-09-07T08:59:26.253Z,9.05
2023-09-07T09:01:59.703Z,10.30
2023-09-07T09:04:29.545Z,8.15
2023-09-07T09:06:59.642Z,7.35
2023-09-07T09:09:27.145Z,6.78
2023-09-07T09:11:55.161Z,5.10
2023-09-07T09:14:23.708Z,5.63
2023-09-07T09:16:53.020Z,6.28
2023-09-07T09:19:33.822Z,5.38
2023-09-07T09:22:04.785Z,6.00
2023-09-07T09:24:36.075Z,6.07
2023-09-07T09:29:34.335Z,4.93
2023-09-07T09:32:06.221Z,5.10
2023-09-07T09:34:35.770Z,5.07
2023-09-07T09:37:07.552Z,5.15
2023-09-07T09:39:36.395Z,4.80
2023-09-07T09:42:04.719Z,5.65
2023-09-07T09:44:33.989Z,4.57
2023-09-07T09:47:02.006Z,5.60
2023-09-07T09:49:30.371Z,4.25
2023-09-07T09:51:59.780Z,4.38
2023-09-07T09:54:27.715Z,4.32
2023-09-07T09:56:55.499Z,3.92
2023-09-07T09:59:23.921Z,4.28
2023-09-07T10:01:54.480Z,3.90
2023-09-07T10:04:24.154Z,4.28
2023-09-07T10:06:56.160Z,4.22
2023-09-07T10:09:23.777Z,4.18
2023-09-07T10:11:57.313Z,4.10
2023-09-07T10:14:24.919Z,4.40
2023-09-07T10:16:56.750Z,4.38
2023-09-07T10:19:25.879Z,4.53
2023-09-07T10:21:55.612Z,4.88
2023-09-07T10:24:32.051Z,4.90
2023-09-07T10:27:05.763Z,4.72
2023-09-07T10:29:46.683Z,4.88
2023-09-07T10:32:19.359Z,4.45
2023-09-07T10:34:47.852Z,5.13
2023-09-07T10:37:16.873Z,4.47
2023-09-07T10:39:46.140Z,4.43
2023-09-07T10:42:27.358Z,4.13
2023-09-07T10:44:55.232Z,5.35
2023-09-07T10:47:23.236Z,5.20
2023-09-07T10:49:50.774Z,5.60
2023-09-07T10:52:18.347Z,5.75
2023-09-07T10:54:46.401Z,4.60
2023-09-07T10:57:19.062Z,5.80
2023-09-07T10:59:47.412Z,4.72
2023-09-07T11:02:17.487Z,4.72
2023-09-07T11:04:45.612Z,5.20
2023-09-07T11:07:14.008Z,3.83
2023-09-07T11:09:43.005Z,3.67
2023-09-07T11:12:14.391Z,4.13
2023-09-07T11:14:41.947Z,3.90
2023-09-07T11:17:10.176Z,4.35
2023-09-07T11:19:38.494Z,4.00
2023-09-07T11:22:06.010Z,4.28
2023-09-07T11:24:36.375Z,4.10
2023-09-07T11:27:05.621Z,3.15
2023-09-07T11:29:34.382Z,3.38
2023-09-07T11:32:09.871Z,3.40
2023-09-07T11:34:49.971Z,3.58
2023-09-07T11:37:19.262Z,3.35
2023-09-07T11:39:47.122Z,3.38
2023-09-07T11:42:15.083Z,3.65
2023-09-07T11:44:42.606Z,3.97
2023-09-07T11:47:10.181Z,4.20
2023-09-07T11:49:37.924Z,4.10
2023-09-07T11:52:05.834Z,3.90
2023-09-07T11:54:33.204Z,3.45
2023-09-07T11:57:01.395Z,3.78
2023-09-07T11:59:37.998Z,3.80
2023-09-07T12:02:15.981Z,3.17
2023-09-07T12:04:53.250Z,3.53
2023-09-07T12:07:21.318Z,3.30
2023-09-07T12:09:52.413Z,3.45
2023-09-07T12:12:20.208Z,3.33
2023-09-07T12:14:47.747Z,3.22
2023-09-07T12:17:15.478Z,2.88
2023-09-07T12:19:46.873Z,3.03
2023-09-07T12:22:14.744Z,3.30
2023-09-07T12:24:42.627Z,3.15
2023-09-07T12:27:10.446Z,3.60
2023-09-07T12:29:37.863Z,3.58
2023-09-07T12:32:05.927Z,3.65
2023-09-07T12:34:33.856Z,3.97
2023-09-07T12:37:05.746Z,3.95
2023-09-07T12:39:33.917Z,3.60
2023-09-07T12:42:01.277Z,3.60
2023-09-07T12:44:29.091Z,3.75
2023-09-07T12:46:57.086Z,3.72
2023-09-07T12:49:25.487Z,4.00
2023-09-07T12:51:52.929Z,3.90
2023-09-07T12:54:20.336Z,3.50
2023-09-07T12:56:48.019Z,4.43
2023-09-07T12:59:15.589Z,3.63
2023-09-07T13:01:43.641Z,3.40
2023-09-07T13:04:12.655Z,4.03
2023-09-07T13:06:40.480Z,3.38
2023-09-07T13:09:10.646Z,3.53
2023-09-07T13:11:38.554Z,3.60
2023-09-07T13:14:12.134Z,3.58
2023-09-07T13:16:40.006Z,3.50
2023-09-07T13:19:07.735Z,2.78
2023-09-07T13:21:35.531Z,3.30
2023-09-07T13:24:03.011Z,3.15
2023-09-07T13:26:31.556Z,3.30
2023-09-07T13:28:59.009Z,3.20
2023-09-07T13:31:26.550Z,3.35
2023-09-07T13:33:54.096Z,3.55
2023-09-07T13:36:21.464Z,3.00
2023-09-07T13:38:50.035Z,3.70
2023-09-07T13:41:20.488Z,3.35
2023-09-07T13:43:47.978Z,3.35
2023-09-07T13:46:15.482Z,3.40
2023-09-07T13:48:42.830Z,3.38
2023-09-07T13:51:10.666Z,3.25
2023-09-07T13:53:38.031Z,3.80
2023-09-07T13:56:05.855Z,3.00
2023-09-07T13:58:33.263Z,4.40
2023-09-07T14:01:00.632Z,3.47
2023-09-07T14:03:28.112Z,3.03
2023-09-07T14:05:56.044Z,3.40
2023-09-07T14:08:25.358Z,2.90
2023-09-07T14:10:53.284Z,3.20
2023-09-07T14:13:21.097Z,3.08
2023-09-07T14:15:48.801Z,3.20
2023-09-07T14:18:19.562Z,3.22
2023-09-07T14:23:14.633Z,2.58
2023-09-07T14:25:45.976Z,3.38
2023-09-07T14:28:13.506Z,2.80
2023-09-07T14:30:41.272Z,2.90
2023-09-07T14:33:09.011Z,2.70
2023-09-07T14:35:36.488Z,6.85
2023-09-07T14:38:04.161Z,3.38
2023-09-07T14:40:31.833Z,2.75
2023-09-07T14:42:59.665Z,2.10
2023-09-07T14:45:27.618Z,2.30
2023-09-07T14:47:55.617Z,1.92
2023-09-07T14:50:22.992Z,2.25
2023-09-07T14:52:50.823Z,1.90
2023-09-07T14:55:18.718Z,2.47
2023-09-07T14:57:46.361Z,2.05
2023-09-07T15:00:14.435Z,2.03
2023-09-07T15:02:41.931Z,2.15
2023-09-07T15:05:10.368Z,1.73
2023-09-07T15:07:38.022Z,2.30
2023-09-07T15:10:06.223Z,1.77
2023-09-07T15:12:34.072Z,2.10
2023-09-07T15:15:01.589Z,2.00
2023-09-07T15:17:29.229Z,1.73
2023-09-07T15:19:57.069Z,2.28
2023-09-07T15:22:24.417Z,2.28
2023-09-07T15:24:52.833Z,2.25
2023-09-07T15:27:20.767Z,2.03
2023-09-07T15:29:48.168Z,2.42
2023-09-07T15:32:16.018Z,2.10
2023-09-07T15:34:43.864Z,2.63
2023-09-07T15:37:12.115Z,1.98
2023-09-07T15:39:39.882Z,2.00
2023-09-07T15:42:07.729Z,2.30
2023-09-07T15:44:35.147Z,1.80
2023-09-07T15:47:02.949Z,1.90
2023-09-07T15:49:30.367Z,1.90
2023-09-07T15:51:57.798Z,1.95
2023-09-07T15:54:26.367Z,2.10
2023-09-07T15:56:58.517Z,2.00
2023-09-07T15:59:30.348Z,2.25
2023-09-07T16:01:58.539Z,2.10
2023-09-07T16:04:26.153Z,2.38
2023-09-07T16:06:53.886Z,2.33
2023-09-07T16:09:21.324Z,1.98
2023-09-07T16:11:48.859Z,2.30
2023-09-07T16:14:16.792Z,2.05
2023-09-07T16:16:44.614Z,2.20
2023-09-07T16:19:12.003Z,2.30
2023-09-07T16:21:39.847Z,2.10
2023-09-07T16:24:07.325Z,2.58
2023-09-07T16:26:34.900Z,2.70
2023-09-07T16:29:02.681Z,2.00
2023-09-07T16:31:30.472Z,2.67
2023-09-07T16:33:57.979Z,2.72
2023-09-07T16:36:25.446Z,2.50
2023-09-07T16:38:52.851Z,2.50
2023-09-07T16:41:20.319Z,2.53
2023-09-07T16:43:48.683Z,2.60
2023-09-07T16:46:16.797Z,2.40
2023-09-07T16:48:44.230Z,2.90
2023-09-07T16:51:11.725Z,2.20
2023-09-07T16:53:39.836Z,2.40
2023-09-07T16:56:07.727Z,2.47
2023-09-07T16:59:03.716Z,2.38
2023-09-07T17:01:24.392Z,2.22
2023-09-07T17:03:52.274Z,2.78
2023-09-07T17:06:19.680Z,2.63
2023-09-07T17:08:47.157Z,3.30
2023-09-07T17:11:15.459Z,3.15
2023-09-07T17:13:51.826Z,3.42
2023-09-07T17:16:27.508Z,3.05
2023-09-07T17:18:54.873Z,3.63
2023-09-07T17:21:22.889Z,3.45
2023-09-07T17:23:51.470Z,4.32
2023-09-07T17:26:19.586Z,4.25
2023-09-07T17:28:47.482Z,5.00
2023-09-07T17:31:16.121Z,5.20
2023-09-07T17:33:43.914Z,5.53
2023-09-07T17:36:17.314Z,4.45
2023-09-07T17:38:45.234Z,4.53
2023-09-07T17:41:12.881Z,4.22
2023-09-07T17:43:41.089Z,4.38
2023-09-07T17:46:09.374Z,4.72
2023-09-07T17:48:37.185Z,4.63
2023-09-07T17:51:04.976Z,4.22
2023-09-07T17:53:38.450Z,4.53
2023-09-07T17:56:10.125Z,4.00
2023-09-07T17:58:43.968Z,4.40
2023-09-07T18:01:13.720Z,4.20
2023-09-07T18:03:41.510Z,4.18
2023-09-07T18:06:09.634Z,4.30
2023-09-07T18:08:38.723Z,4.65
2023-09-07T18:11:07.233Z,4.70
2023-09-07T18:13:34.905Z,4.45
2023-09-07T18:16:02.377Z,4.13
2023-09-07T18:18:29.794Z,4.38
2023-09-07T18:20:58.128Z,4.03
2023-09-07T18:23:28.107Z,4.18
2023-09-07T18:25:55.957Z,4.07
2023-09-07T18:28:23.954Z,4.35
2023-09-07T18:30:51.366Z,4.03
2023-09-07T18:33:19.975Z,4.53
2023-09-07T18:35:47.877Z,5.00
2023-09-07T18:38:15.252Z,4.75
2023-09-07T18:40:46.865Z,4.50
2023-09-07T18:43:14.758Z,5.15
2023-09-07T18:45:43.360Z,4.70
2023-09-07T18:48:10.755Z,4.32
2023-09-07T18:50:38.099Z,5.35
2023-09-07T18:53:05.409Z,5.28
2023-09-07T18:55:33.285Z,5.28
2023-09-07T18:58:01.149Z,5.07
2023-09-07T19:00:30.082Z,4.65
2023-09-07T19:02:58.366Z,4.97
2023-09-07T19:05:26.024Z,5.50
2023-09-07T19:07:54.162Z,5.10
2023-09-07T19:10:21.656Z,5.30
2023-09-07T19:12:50.605Z,5.00
2023-09-07T19:15:18.130Z,5.75
2023-09-07T19:17:45.867Z,5.60
2023-09-07T19:20:16.112Z,6.35
2023-09-07T19:22:44.360Z,5.43
2023-09-07T19:25:12.746Z,5.22
2023-09-07T19:27:41.309Z,5.07
2023-09-07T19:30:09.886Z,5.18
2023-09-07T19:32:37.323Z,5.50
2023-09-07T19:35:05.538Z,5.28
2023-09-07T19:37:33.125Z,5.22
2023-09-07T19:40:00.750Z,4.85
2023-09-07T19:42:28.611Z,5.55
2023-09-07T19:44:57.126Z,5.47
2023-09-07T19:47:24.984Z,5.15
2023-09-07T19:49:52.835Z,4.93
2023-09-07T19:52:20.790Z,5.07
2023-09-07T19:54:51.568Z,5.25
2023-09-07T19:57:20.454Z,5.55
2023-09-07T19:59:51.535Z,5.22
2023-09-07T20:02:19.183Z,5.32
2023-09-07T20:04:46.837Z,5.43
2023-09-07T20:07:14.670Z,5.40
2023-09-07T20:09:42.578Z,5.80
2023-09-07T20:12:10.565Z,5.15
2023-09-07T20:14:37.966Z,5.57
2023-09-07T20:17:05.943Z,5.60
2023-09-07T20:19:46.349Z,5.82
2023-09-07T20:22:16.484Z,5.90
2023-09-07T20:24:44.434Z,5.75
2023-09-07T20:27:11.784Z,6.18
2023-09-07T20:29:39.795Z,6.88
2023-09-07T20:32:07.841Z,7.78
2023-09-07T20:34:35.682Z,8.20
2023-09-07T20:37:03.187Z,8.55
2023-09-07T20:39:30.705Z,8.18
2023-09-07T20:41:58.220Z,7.70
